createdAt,value
2019-05-17T00:00:07.400Z,0.00
2019-05-17T00:01:07.411Z,0.00
2019-05-17T00:02:07.003Z,0.00
2019-05-17T00:03:07.071Z,0.00
2019-05-17T00:04:07.211Z,0.00
2019-05-17T00:05:06.994Z,0.00
2019-05-17T00:06:07.023Z,0.00
2019-05-17T00:07:06.780Z,0.00
2019-05-17T00:08:07.736Z,0.00
2019-05-17T00:09:07.064Z,0.00
2019-05-17T00:10:07.004Z,0.00
2019-05-17T00:11:06.862Z,0.00
2019-05-17T00:12:07.461Z,0.00
2019-05-17T00:13:07.651Z,0.00
2019-05-17T00:14:06.621Z,0.00
2019-05-17T00:15:07.233Z,0.00
2019-05-17T00:16:07.269Z,0.00
2019-05-17T00:17:06.881Z,0.00
2019-05-17T00:18:06.900Z,0.00
2019-05-17T00:19:07.473Z,0.00
2019-05-17T00:20:06.554Z,0.00
2019-05-17T00:21:07.734Z,0.00
2019-05-17T00:22:07.454Z,0.00
2019-05-17T00:23:07.253Z,0.00
2019-05-17T00:24:06.839Z,0.00
2019-05-17T00:25:07.367Z,0.00
2019-05-17T00:26:07.207Z,0.00
2019-05-17T00:27:06.802Z,0.00
2019-05-17T00:28:07.303Z,0.00
2019-05-17T00:29:06.925Z,0.00
2019-05-17T00:30:06.645Z,0.00
2019-05-17T00:31:06.691Z,0.00
2019-05-17T00:32:06.626Z,0.00
2019-05-17T00:33:07.749Z,0.00
2019-05-17T00:34:07.265Z,0.00
2019-05-17T00:35:07.258Z,0.00
2019-05-17T00:36:06.963Z,0.00
2019-05-17T00:37:07.094Z,0.00
2019-05-17T00:38:06.669Z,0.00
2019-05-17T00:39:07.440Z,0.00
2019-05-17T00:40:07.291Z,0.00
2019-05-17T00:41:07.053Z,0.00
2019-05-17T00:42:06.920Z,0.00
2019-05-17T00:43:06.928Z,0.00
2019-05-17T00:44:06.446Z,0.00
2019-05-17T00:45:06.766Z,0.00
2019-05-17T00:46:06.766Z,0.00
2019-05-17T00:47:06.693Z,0.00
2019-05-17T00:48:06.579Z,0.00
2019-05-17T00:49:06.589Z,0.00
2019-05-17T00:50:07.426Z,0.00
2019-05-17T00:51:09.866Z,0.00
2019-05-17T00:52:07.243Z,0.00
2019-05-17T00:53:07.353Z,0.00
2019-05-17T00:54:06.790Z,0.00
2019-05-17T00:55:06.775Z,0.00
2019-05-17T00:56:06.656Z,0.00
2019-05-17T00:57:07.442Z,0.00
2019-05-17T00:58:06.681Z,0.00
2019-05-17T00:59:07.423Z,0.00
2019-05-17T01:00:08.285Z,0.00
2019-05-17T01:01:08.304Z,0.00
2019-05-17T01:02:06.991Z,0.00
2019-05-17T01:03:07.111Z,0.00
2019-05-17T01:04:06.815Z,0.00
2019-05-17T01:05:06.442Z,0.00
2019-05-17T01:06:06.396Z,0.00
2019-05-17T01:07:06.919Z,0.00
2019-05-17T01:08:07.259Z,0.00
2019-05-17T01:09:07.833Z,0.00
2019-05-17T01:10:07.053Z,0.00
2019-05-17T01:11:07.151Z,0.00
2019-05-17T01:12:07.153Z,0.00
2019-05-17T01:13:06.815Z,0.00
2019-05-17T01:14:06.776Z,0.00
2019-05-17T01:15:07.417Z,0.00
2019-05-17T01:16:07.290Z,0.00
2019-05-17T01:17:07.183Z,0.00
2019-05-17T01:18:07.291Z,0.00
2019-05-17T01:19:06.884Z,0.00
2019-05-17T01:20:06.831Z,0.00
2019-05-17T01:21:06.465Z,0.00
2019-05-17T01:22:07.552Z,0.00
2019-05-17T01:23:07.747Z,0.00
2019-05-17T01:24:06.853Z,0.00
2019-05-17T01:25:06.348Z,0.00
2019-05-17T01:26:07.585Z,0.00
2019-05-17T01:27:06.605Z,0.00
2019-05-17T01:28:07.585Z,0.00
2019-05-17T01:29:06.682Z,0.00
2019-05-17T01:30:06.829Z,0.00
2019-05-17T01:31:06.732Z,0.00
2019-05-17T01:32:06.698Z,0.00
2019-05-17T01:33:06.618Z,0.00
2019-05-17T01:34:07.378Z,0.00
2019-05-17T01:35:07.230Z,0.00
2019-05-17T01:36:06.827Z,0.00
2019-05-17T01:37:06.486Z,0.00
2019-05-17T01:38:07.293Z,0.00
2019-05-17T01:39:17.019Z,0.00
2019-05-17T01:40:06.761Z,0.00
2019-05-17T01:41:07.025Z,0.00
2019-05-17T01:42:06.761Z,0.00
2019-05-17T01:43:07.732Z,0.00
2019-05-17T01:44:07.531Z,0.00
2019-05-17T01:45:07.273Z,0.00
2019-05-17T01:46:06.702Z,0.00
2019-05-17T01:47:07.441Z,0.00
2019-05-17T01:48:07.284Z,0.00
2019-05-17T01:49:06.851Z,0.00
2019-05-17T01:50:06.825Z,0.00
2019-05-17T01:51:07.495Z,0.00
2019-05-17T01:52:07.464Z,0.00
2019-05-17T01:53:07.481Z,0.00
2019-05-17T01:54:06.829Z,0.00
2019-05-17T01:55:06.606Z,0.00
2019-05-17T01:56:06.365Z,0.00
2019-05-17T01:57:07.383Z,0.00
2019-05-17T01:58:07.281Z,0.00
2019-05-17T01:59:06.858Z,0.00
2019-05-17T02:00:06.412Z,0.00
2019-05-17T02:01:07.393Z,0.00
2019-05-17T02:02:07.159Z,0.00
2019-05-17T02:03:07.051Z,0.00
2019-05-17T02:04:06.649Z,0.00
2019-05-17T02:05:06.460Z,0.00
2019-05-17T02:06:07.514Z,0.00
2019-05-17T02:07:06.850Z,0.00
2019-05-17T02:08:06.599Z,0.00
2019-05-17T02:09:06.375Z,0.00
2019-05-17T02:10:07.472Z,0.00
2019-05-17T02:11:06.873Z,0.00
2019-05-17T02:12:06.702Z,0.00
2019-05-17T02:13:06.551Z,0.00
2019-05-17T02:14:06.987Z,0.00
2019-05-17T02:15:06.966Z,0.00
2019-05-17T02:16:07.169Z,0.00
2019-05-17T02:17:06.885Z,0.00
2019-05-17T02:18:07.137Z,0.00
2019-05-17T02:19:06.761Z,0.00
2019-05-17T02:20:06.454Z,0.00
2019-05-17T02:21:06.543Z,0.00
2019-05-17T02:22:07.289Z,0.00
2019-05-17T02:23:07.307Z,0.00
2019-05-17T02:24:07.764Z,0.00
2019-05-17T02:25:07.125Z,0.00
2019-05-17T02:26:06.634Z,0.00
2019-05-17T02:27:05.014Z,0.00
2019-05-17T02:28:05.001Z,0.00
2019-05-17T02:29:04.987Z,0.00
2019-05-17T02:30:04.985Z,0.00
2019-05-17T02:31:04.970Z,0.00
2019-05-17T02:32:04.974Z,0.00
2019-05-17T02:33:04.948Z,0.00
2019-05-17T02:34:04.940Z,0.00
2019-05-17T02:35:04.921Z,0.00
2019-05-17T02:36:04.910Z,0.00
2019-05-17T02:37:04.892Z,0.00
2019-05-17T02:38:04.881Z,0.00
2019-05-17T02:39:04.875Z,0.00
2019-05-17T02:40:08.298Z,0.00
2019-05-17T02:41:04.850Z,0.00
2019-05-17T02:42:04.831Z,0.00
2019-05-17T02:43:04.825Z,0.00
2019-05-17T02:44:04.805Z,0.00
2019-05-17T02:45:04.796Z,0.00
2019-05-17T02:46:04.786Z,0.00
2019-05-17T02:47:04.767Z,0.00
2019-05-17T02:48:04.762Z,0.00
2019-05-17T02:49:04.743Z,0.00
2019-05-17T02:50:05.573Z,0.00
2019-05-17T02:51:04.722Z,0.00
2019-05-17T02:52:04.706Z,0.00
2019-05-17T02:53:04.989Z,0.00
2019-05-17T02:54:04.701Z,0.00
2019-05-17T02:55:04.671Z,0.00
2019-05-17T02:56:04.657Z,0.00
2019-05-17T02:57:04.656Z,0.00
2019-05-17T02:58:04.633Z,0.00
2019-05-17T02:59:04.628Z,0.00
2019-05-17T03:00:04.842Z,0.00
2019-05-17T03:01:04.609Z,0.00
2019-05-17T03:02:04.579Z,0.00
2019-05-17T03:03:04.573Z,0.00
2019-05-17T03:04:04.561Z,0.00
2019-05-17T03:05:04.560Z,0.00
2019-05-17T03:06:04.532Z,0.00
2019-05-17T03:07:04.518Z,0.00
2019-05-17T03:08:04.787Z,0.00
2019-05-17T03:09:04.513Z,0.00
2019-05-17T03:10:21.010Z,0.00
2019-05-17T03:11:04.472Z,0.00
2019-05-17T03:12:04.456Z,0.00
2019-05-17T03:13:04.594Z,0.00
2019-05-17T03:14:04.442Z,0.00
2019-05-17T03:15:04.553Z,0.00
2019-05-17T03:16:04.430Z,0.00
2019-05-17T03:17:04.403Z,0.00
2019-05-17T03:18:04.380Z,0.00
2019-05-17T03:19:04.548Z,0.00
2019-05-17T03:20:04.492Z,0.00
2019-05-17T03:21:04.449Z,0.00
2019-05-17T03:22:07.610Z,0.00
2019-05-17T03:23:04.331Z,0.00
2019-05-17T03:24:04.308Z,0.00
2019-05-17T03:25:04.293Z,0.00
2019-05-17T03:26:04.292Z,0.00
2019-05-17T03:27:04.267Z,0.00
2019-05-17T03:28:04.254Z,0.00
2019-05-17T03:29:04.240Z,0.00
2019-05-17T03:30:04.627Z,0.00
2019-05-17T03:31:07.616Z,0.00
2019-05-17T03:32:08.682Z,0.00
2019-05-17T03:33:06.866Z,0.00
2019-05-17T03:34:06.342Z,0.00
2019-05-17T03:35:07.087Z,0.00
2019-05-17T03:36:06.179Z,0.00
2019-05-17T03:37:06.256Z,0.00
2019-05-17T03:38:04.212Z,0.00
2019-05-17T03:39:04.136Z,0.00
2019-05-17T03:40:22.929Z,0.00
2019-05-17T03:41:17.689Z,0.00
2019-05-17T03:42:04.076Z,0.00
2019-05-17T03:43:04.065Z,0.00
2019-05-17T03:44:04.055Z,0.00
2019-05-17T03:45:04.040Z,0.00
2019-05-17T03:46:04.035Z,0.00
2019-05-17T03:47:04.014Z,0.00
2019-05-17T03:48:05.096Z,0.00
2019-05-17T03:49:04.212Z,0.00
2019-05-17T03:50:03.975Z,5.63
2019-05-17T03:51:03.964Z,5.63
2019-05-17T03:52:03.951Z,5.63
2019-05-17T03:53:03.936Z,5.63
2019-05-17T03:54:03.922Z,5.63
2019-05-17T03:55:04.322Z,5.63
2019-05-17T03:56:03.899Z,5.63
2019-05-17T03:57:03.889Z,5.63
2019-05-17T03:58:03.875Z,5.63
2019-05-17T03:59:04.081Z,11.25
2019-05-17T04:00:04.207Z,11.25
2019-05-17T04:01:04.382Z,11.25
2019-05-17T04:02:03.823Z,11.25
2019-05-17T04:03:03.809Z,11.25
2019-05-17T04:04:03.800Z,11.25
2019-05-17T04:05:04.533Z,16.88
2019-05-17T04:06:04.186Z,16.88
2019-05-17T04:07:03.787Z,16.88
2019-05-17T04:08:03.986Z,16.88
2019-05-17T04:09:04.076Z,16.88
2019-05-17T04:10:04.689Z,16.88
2019-05-17T04:11:20.776Z,22.50
2019-05-17T04:12:03.696Z,22.50
2019-05-17T04:13:04.639Z,22.50
2019-05-17T04:14:03.677Z,22.50
2019-05-17T04:15:03.806Z,28.13
2019-05-17T04:16:08.741Z,28.13
2019-05-17T04:17:03.637Z,28.13
2019-05-17T04:18:04.549Z,28.13
2019-05-17T04:19:03.638Z,28.13
2019-05-17T04:20:03.926Z,33.75
2019-05-17T04:21:03.749Z,33.75
2019-05-17T04:22:04.001Z,33.75
2019-05-17T04:23:04.240Z,39.38
2019-05-17T04:24:03.555Z,39.38
2019-05-17T04:25:03.532Z,45.00
2019-05-17T04:26:04.465Z,39.38
2019-05-17T04:27:03.976Z,67.50
2019-05-17T04:28:03.493Z,106.88
2019-05-17T04:29:03.733Z,129.38
2019-05-17T04:30:03.874Z,146.25
2019-05-17T04:31:03.455Z,151.88
2019-05-17T04:32:04.082Z,157.50
2019-05-17T04:33:04.038Z,174.38
2019-05-17T04:34:03.439Z,202.50
2019-05-17T04:35:03.949Z,213.75
2019-05-17T04:36:03.400Z,225.00
2019-05-17T04:37:04.411Z,230.63
2019-05-17T04:38:04.455Z,258.75
2019-05-17T04:39:03.362Z,281.25
2019-05-17T04:40:03.869Z,286.88
2019-05-17T04:41:03.720Z,309.38
2019-05-17T04:42:04.148Z,331.88
2019-05-17T04:43:03.785Z,337.50
2019-05-17T04:44:03.311Z,343.13
2019-05-17T04:45:03.918Z,360.00
2019-05-17T04:46:03.367Z,360.00
2019-05-17T04:47:03.579Z,343.13
2019-05-17T04:48:04.276Z,365.63
2019-05-17T04:49:03.268Z,399.38
2019-05-17T04:50:04.180Z,421.88
2019-05-17T04:51:03.246Z,410.63
2019-05-17T04:52:03.831Z,405.00
2019-05-17T04:53:03.345Z,416.25
2019-05-17T04:54:03.608Z,438.75
2019-05-17T04:55:04.335Z,444.38
2019-05-17T04:56:03.447Z,365.63
2019-05-17T04:57:03.191Z,191.25
2019-05-17T04:58:04.138Z,129.38
2019-05-17T04:59:03.648Z,129.38
2019-05-17T05:00:04.212Z,135.00
2019-05-17T05:01:04.113Z,135.00
2019-05-17T05:02:03.461Z,135.00
2019-05-17T05:03:03.984Z,135.00
2019-05-17T05:04:03.927Z,135.00
2019-05-17T05:05:03.641Z,135.00
2019-05-17T05:06:03.443Z,135.00
2019-05-17T05:07:03.358Z,140.63
2019-05-17T05:08:03.543Z,140.63
2019-05-17T05:09:03.115Z,140.63
2019-05-17T05:10:03.414Z,140.63
2019-05-17T05:11:03.975Z,135.00
2019-05-17T05:12:06.155Z,146.25
2019-05-17T05:13:03.604Z,146.25
2019-05-17T05:14:03.155Z,146.25
2019-05-17T05:15:03.717Z,146.25
2019-05-17T05:16:03.435Z,146.25
2019-05-17T05:17:03.051Z,140.63
2019-05-17T05:18:03.040Z,140.63
2019-05-17T05:19:03.205Z,146.25
2019-05-17T05:20:03.166Z,146.25
2019-05-17T05:21:03.792Z,129.38
2019-05-17T05:22:04.469Z,135.00
2019-05-17T05:23:03.017Z,135.00
2019-05-17T05:24:02.989Z,157.50
2019-05-17T05:25:02.980Z,163.13
2019-05-17T05:26:03.361Z,168.75
2019-05-17T05:27:02.965Z,174.38
2019-05-17T05:28:02.958Z,168.75
2019-05-17T05:29:02.949Z,151.88
2019-05-17T05:30:03.218Z,163.13
2019-05-17T05:31:02.930Z,163.13
2019-05-17T05:32:02.923Z,163.13
2019-05-17T05:33:02.913Z,151.88
2019-05-17T05:34:02.909Z,157.50
2019-05-17T05:35:03.267Z,157.50
2019-05-17T05:36:02.897Z,146.25
2019-05-17T05:37:02.879Z,168.75
2019-05-17T05:38:02.875Z,168.75
2019-05-17T05:39:02.868Z,168.75
2019-05-17T05:40:02.855Z,146.25
2019-05-17T05:41:02.845Z,140.63
2019-05-17T05:42:08.007Z,129.38
2019-05-17T05:43:02.831Z,118.13
2019-05-17T05:44:02.824Z,129.38
2019-05-17T05:45:03.180Z,123.75
2019-05-17T05:46:02.879Z,118.13
2019-05-17T05:47:02.794Z,129.38
2019-05-17T05:48:02.789Z,135.00
2019-05-17T05:49:02.776Z,157.50
2019-05-17T05:50:02.769Z,157.50
2019-05-17T05:51:04.665Z,146.25
2019-05-17T05:52:02.753Z,146.25
2019-05-17T05:53:02.745Z,140.63
2019-05-17T05:54:02.735Z,135.00
2019-05-17T05:55:02.724Z,135.00
2019-05-17T05:56:03.535Z,129.38
2019-05-17T05:57:02.712Z,135.00
2019-05-17T05:58:03.073Z,146.25
2019-05-17T05:59:03.049Z,135.00
2019-05-17T06:00:02.695Z,146.25
2019-05-17T06:01:02.831Z,135.00
2019-05-17T06:02:02.669Z,123.75
2019-05-17T06:03:04.192Z,129.38
2019-05-17T06:04:02.897Z,168.75
2019-05-17T06:05:02.655Z,180.00
2019-05-17T06:06:02.637Z,185.63
2019-05-17T06:07:03.088Z,185.63
2019-05-17T06:08:03.021Z,185.63
2019-05-17T06:09:02.890Z,185.63
2019-05-17T06:10:02.604Z,180.00
2019-05-17T06:11:02.589Z,174.38
2019-05-17T06:12:02.642Z,174.38
2019-05-17T06:13:03.332Z,180.00
2019-05-17T06:14:02.566Z,191.25
2019-05-17T06:15:02.860Z,191.25
2019-05-17T06:16:02.936Z,196.88
2019-05-17T06:17:03.190Z,196.88
2019-05-17T06:18:03.105Z,196.88
2019-05-17T06:19:02.523Z,191.25
2019-05-17T06:20:02.710Z,196.88
2019-05-17T06:21:03.231Z,196.88
2019-05-17T06:22:02.872Z,191.25
2019-05-17T06:23:02.681Z,191.25
2019-05-17T06:24:02.727Z,191.25
2019-05-17T06:25:03.746Z,191.25
2019-05-17T06:26:03.858Z,191.25
2019-05-17T06:27:02.456Z,191.25
2019-05-17T06:28:02.446Z,185.63
2019-05-17T06:29:02.850Z,185.63
2019-05-17T06:30:02.425Z,185.63
2019-05-17T06:31:03.017Z,185.63
2019-05-17T06:32:02.736Z,185.63
2019-05-17T06:33:02.601Z,185.63
2019-05-17T06:34:02.399Z,185.63
2019-05-17T06:35:02.385Z,185.63
2019-05-17T06:36:02.878Z,185.63
2019-05-17T06:37:02.487Z,185.63
2019-05-17T06:38:02.358Z,185.63
2019-05-17T06:39:02.389Z,185.63
2019-05-17T06:40:02.648Z,185.63
2019-05-17T06:41:02.335Z,185.63
2019-05-17T06:42:02.856Z,185.63
2019-05-17T06:43:04.314Z,185.63
2019-05-17T06:44:02.895Z,185.63
2019-05-17T06:45:02.406Z,191.25
2019-05-17T06:46:02.300Z,191.25
2019-05-17T06:47:02.830Z,191.25
2019-05-17T06:48:02.637Z,191.25
2019-05-17T06:49:03.004Z,191.25
2019-05-17T06:50:03.083Z,191.25
2019-05-17T06:51:02.759Z,191.25
2019-05-17T06:52:02.615Z,185.63
2019-05-17T06:53:03.149Z,185.63
2019-05-17T06:54:02.237Z,185.63
2019-05-17T06:55:05.742Z,185.63
2019-05-17T06:56:02.815Z,180.00
2019-05-17T06:57:03.303Z,180.00
2019-05-17T06:58:02.199Z,174.38
2019-05-17T06:59:02.190Z,168.75
2019-05-17T07:00:06.037Z,168.75
2019-05-17T07:01:02.178Z,174.38
2019-05-17T07:02:02.170Z,151.88
2019-05-17T07:03:02.160Z,146.25
2019-05-17T07:04:02.163Z,146.25
2019-05-17T07:05:02.185Z,129.38
2019-05-17T07:06:02.137Z,146.25
2019-05-17T07:07:02.136Z,163.13
2019-05-17T07:08:02.125Z,168.75
2019-05-17T07:09:02.118Z,174.38
2019-05-17T07:10:02.220Z,174.38
2019-05-17T07:11:02.101Z,168.75
2019-05-17T07:12:02.169Z,157.50
2019-05-17T07:13:02.198Z,151.88
2019-05-17T07:14:02.078Z,146.25
2019-05-17T07:15:02.271Z,146.25
2019-05-17T07:16:02.063Z,146.25
2019-05-17T07:17:02.057Z,174.38
2019-05-17T07:18:02.048Z,163.13
2019-05-17T07:19:02.053Z,168.75
2019-05-17T07:20:02.034Z,168.75
2019-05-17T07:21:03.534Z,151.88
2019-05-17T07:22:02.018Z,151.88
2019-05-17T07:23:02.008Z,146.25
2019-05-17T07:24:02.009Z,140.63
2019-05-17T07:25:01.996Z,140.63
2019-05-17T07:26:01.990Z,146.25
2019-05-17T07:27:01.980Z,146.25
2019-05-17T07:28:01.978Z,151.88
2019-05-17T07:29:01.968Z,163.13
2019-05-17T07:30:01.959Z,146.25
2019-05-17T07:31:01.953Z,140.63
2019-05-17T07:32:01.953Z,146.25
2019-05-17T07:33:01.946Z,151.88
2019-05-17T07:34:01.923Z,135.00
2019-05-17T07:35:01.918Z,129.38
2019-05-17T07:36:01.912Z,123.75
2019-05-17T07:37:01.901Z,129.38
2019-05-17T07:38:01.892Z,135.00
2019-05-17T07:39:01.887Z,135.00
2019-05-17T07:40:05.118Z,140.63
2019-05-17T07:41:01.869Z,135.00
2019-05-17T07:42:01.857Z,151.88
2019-05-17T07:43:10.669Z,163.13
2019-05-17T07:44:01.843Z,163.13
2019-05-17T07:45:01.839Z,151.88
2019-05-17T07:46:01.827Z,146.25
2019-05-17T07:47:01.819Z,135.00
2019-05-17T07:48:01.811Z,135.00
2019-05-17T07:49:01.803Z,135.00
2019-05-17T07:50:01.822Z,140.63
2019-05-17T07:51:01.790Z,135.00
2019-05-17T07:52:01.775Z,135.00
2019-05-17T07:53:01.769Z,135.00
2019-05-17T07:54:01.761Z,129.38
2019-05-17T07:55:02.577Z,129.38
2019-05-17T07:56:01.745Z,129.38
2019-05-17T07:57:01.737Z,129.38
2019-05-17T07:58:01.730Z,135.00
2019-05-17T07:59:01.719Z,135.00
2019-05-17T08:00:01.714Z,135.00
2019-05-17T08:01:02.428Z,135.00
2019-05-17T08:02:01.696Z,135.00
2019-05-17T08:03:01.726Z,135.00
2019-05-17T08:04:01.704Z,135.00
2019-05-17T08:05:01.675Z,140.63
2019-05-17T08:06:01.666Z,140.63
2019-05-17T08:07:01.660Z,135.00
2019-05-17T08:08:01.652Z,135.00
2019-05-17T08:09:04.411Z,135.00
2019-05-17T08:10:01.635Z,135.00
2019-05-17T08:11:01.628Z,135.00
2019-05-17T08:12:01.617Z,140.63
2019-05-17T08:13:01.622Z,146.25
2019-05-17T08:14:01.601Z,157.50
2019-05-17T08:15:01.620Z,163.13
2019-05-17T08:16:01.585Z,163.13
2019-05-17T08:17:01.581Z,163.13
2019-05-17T08:18:01.817Z,157.50
2019-05-17T08:19:01.562Z,157.50
2019-05-17T08:20:01.566Z,163.13
2019-05-17T08:21:01.549Z,174.38
2019-05-17T08:22:01.541Z,180.00
2019-05-17T08:23:01.535Z,168.75
2019-05-17T08:24:01.532Z,157.50
2019-05-17T08:25:01.519Z,163.13
2019-05-17T08:26:01.513Z,168.75
2019-05-17T08:27:01.506Z,168.75
2019-05-17T08:28:01.502Z,163.13
2019-05-17T08:29:01.492Z,174.38
2019-05-17T08:30:01.485Z,174.38
2019-05-17T08:31:01.493Z,180.00
2019-05-17T08:32:01.478Z,185.63
2019-05-17T08:33:01.464Z,174.38
2019-05-17T08:34:01.457Z,163.13
2019-05-17T08:35:01.455Z,163.13
2019-05-17T08:36:01.447Z,151.88
2019-05-17T08:37:01.442Z,140.63
2019-05-17T08:38:01.432Z,146.25
2019-05-17T08:39:01.430Z,146.25
2019-05-17T08:40:01.430Z,135.00
2019-05-17T08:41:01.415Z,140.63
2019-05-17T08:42:01.449Z,140.63
2019-05-17T08:43:01.403Z,140.63
2019-05-17T08:44:01.399Z,135.00
2019-05-17T08:45:01.391Z,129.38
2019-05-17T08:46:02.599Z,129.38
2019-05-17T08:47:01.379Z,118.13
2019-05-17T08:48:01.373Z,112.50
2019-05-17T08:49:01.366Z,106.88
2019-05-17T08:50:01.381Z,101.25
2019-05-17T08:51:01.354Z,95.63
2019-05-17T08:52:01.351Z,95.63
2019-05-17T08:53:01.350Z,95.63
2019-05-17T08:54:01.337Z,95.63
2019-05-17T08:55:01.333Z,95.63
2019-05-17T08:56:01.331Z,101.25
2019-05-17T08:57:01.321Z,106.88
2019-05-17T08:58:01.312Z,106.88
2019-05-17T08:59:01.309Z,112.50
2019-05-17T09:00:01.321Z,118.13
2019-05-17T09:01:01.296Z,118.13
2019-05-17T09:02:01.292Z,118.13
2019-05-17T09:03:01.283Z,118.13
2019-05-17T09:04:01.278Z,106.88
2019-05-17T09:05:01.274Z,112.50
2019-05-17T09:06:02.570Z,118.13
2019-05-17T09:07:03.243Z,123.75
2019-05-17T09:08:01.258Z,123.75
2019-05-17T09:09:01.267Z,118.13
2019-05-17T09:10:01.940Z,123.75
2019-05-17T09:11:01.237Z,123.75
2019-05-17T09:12:01.229Z,129.38
2019-05-17T09:13:01.222Z,123.75
2019-05-17T09:14:02.249Z,118.13
2019-05-17T09:15:01.217Z,123.75
2019-05-17T09:16:01.204Z,123.75
2019-05-17T09:17:01.200Z,140.63
2019-05-17T09:18:01.188Z,151.88
2019-05-17T09:19:01.186Z,157.50
2019-05-17T09:20:01.179Z,140.63
2019-05-17T09:21:01.173Z,151.88
2019-05-17T09:22:01.166Z,157.50
2019-05-17T09:23:01.158Z,157.50
2019-05-17T09:24:01.153Z,157.50
2019-05-17T09:25:01.146Z,146.25
2019-05-17T09:26:01.140Z,151.88
2019-05-17T09:27:01.138Z,140.63
2019-05-17T09:28:01.134Z,135.00
2019-05-17T09:29:01.643Z,146.25
2019-05-17T09:30:01.120Z,135.00
2019-05-17T09:31:01.117Z,140.63
2019-05-17T09:32:01.105Z,140.63
2019-05-17T09:33:01.112Z,146.25
2019-05-17T09:34:01.098Z,157.50
2019-05-17T09:35:01.118Z,151.88
2019-05-17T09:36:01.210Z,157.50
2019-05-17T09:37:01.085Z,151.88
2019-05-17T09:38:01.091Z,157.50
2019-05-17T09:39:01.074Z,157.50
2019-05-17T09:40:01.061Z,157.50
2019-05-17T09:41:01.056Z,168.75
2019-05-17T09:42:01.053Z,174.38
2019-05-17T09:43:01.047Z,180.00
2019-05-17T09:44:11.616Z,185.63
2019-05-17T09:45:01.034Z,174.38
2019-05-17T09:46:01.817Z,174.38
2019-05-17T09:47:01.024Z,174.38
2019-05-17T09:48:01.017Z,180.00
2019-05-17T09:49:01.419Z,174.38
2019-05-17T09:50:01.011Z,168.75
2019-05-17T09:51:01.004Z,180.00
2019-05-17T09:52:00.998Z,180.00
2019-05-17T09:53:00.990Z,174.38
2019-05-17T09:54:00.988Z,180.00
2019-05-17T09:55:00.983Z,163.13
2019-05-17T09:56:00.978Z,163.13
2019-05-17T09:57:00.972Z,168.75
2019-05-17T09:58:00.965Z,168.75
2019-05-17T09:59:00.962Z,168.75
2019-05-17T10:00:00.957Z,168.75
2019-05-17T10:01:01.588Z,174.38
2019-05-17T10:02:00.951Z,168.75
2019-05-17T10:03:00.940Z,168.75
2019-05-17T10:04:00.939Z,163.13
2019-05-17T10:05:00.936Z,163.13
2019-05-17T10:06:00.924Z,174.38
2019-05-17T10:07:00.928Z,174.38
2019-05-17T10:08:00.915Z,168.75
2019-05-17T10:09:00.911Z,174.38
2019-05-17T10:10:00.906Z,163.13
2019-05-17T10:11:08.516Z,174.38
2019-05-17T10:12:00.898Z,168.75
2019-05-17T10:13:00.895Z,168.75
2019-05-17T10:14:01.460Z,163.13
2019-05-17T10:15:00.884Z,174.38
2019-05-17T10:16:00.879Z,180.00
2019-05-17T10:17:00.890Z,174.38
2019-05-17T10:18:00.869Z,168.75
2019-05-17T10:19:00.873Z,174.38
2019-05-17T10:20:00.868Z,180.00
2019-05-17T10:21:00.859Z,180.00
2019-05-17T10:22:00.855Z,180.00
2019-05-17T10:23:00.852Z,163.13
2019-05-17T10:24:00.853Z,163.13
2019-05-17T10:25:00.840Z,157.50
2019-05-17T10:26:00.834Z,174.38
2019-05-17T10:27:00.833Z,168.75
2019-05-17T10:28:00.827Z,174.38
2019-05-17T10:29:00.821Z,174.38
2019-05-17T10:30:00.816Z,180.00
2019-05-17T10:31:02.314Z,174.38
2019-05-17T10:32:00.809Z,157.50
2019-05-17T10:33:00.803Z,174.38
2019-05-17T10:34:01.064Z,174.38
2019-05-17T10:35:00.797Z,168.75
2019-05-17T10:36:00.804Z,174.38
2019-05-17T10:37:00.791Z,174.38
2019-05-17T10:38:00.790Z,180.00
2019-05-17T10:39:00.782Z,185.63
2019-05-17T10:40:00.779Z,180.00
2019-05-17T10:41:00.775Z,180.00
2019-05-17T10:42:00.768Z,174.38
2019-05-17T10:43:00.881Z,174.38
2019-05-17T10:44:00.761Z,168.75
2019-05-17T10:45:00.756Z,168.75
2019-05-17T10:46:00.751Z,163.13
2019-05-17T10:47:00.747Z,157.50
2019-05-17T10:48:00.898Z,157.50
2019-05-17T10:49:00.741Z,157.50
2019-05-17T10:50:00.736Z,157.50
2019-05-17T10:51:00.739Z,168.75
2019-05-17T10:52:00.727Z,174.38
2019-05-17T10:53:00.724Z,174.38
2019-05-17T10:54:00.717Z,168.75
2019-05-17T10:55:00.719Z,157.50
2019-05-17T10:56:00.894Z,157.50
2019-05-17T10:57:00.706Z,163.13
2019-05-17T10:58:00.706Z,163.13
2019-05-17T10:59:00.704Z,157.50
2019-05-17T11:00:00.701Z,157.50
2019-05-17T11:01:00.991Z,157.50
2019-05-17T11:02:00.688Z,151.88
2019-05-17T11:03:00.687Z,151.88
2019-05-17T11:04:00.699Z,168.75
2019-05-17T11:05:01.038Z,146.25
2019-05-17T11:06:00.676Z,140.63
2019-05-17T11:07:00.678Z,146.25
2019-05-17T11:08:00.670Z,151.88
2019-05-17T11:09:00.661Z,151.88
2019-05-17T11:10:00.890Z,157.50
2019-05-17T11:11:00.657Z,168.75
2019-05-17T11:12:00.653Z,168.75
2019-05-17T11:13:00.648Z,168.75
2019-05-17T11:14:00.646Z,174.38
2019-05-17T11:15:10.821Z,174.38
2019-05-17T11:16:00.638Z,174.38
2019-05-17T11:17:00.636Z,174.38
2019-05-17T11:18:00.630Z,174.38
2019-05-17T11:19:00.626Z,174.38
2019-05-17T11:20:00.627Z,168.75
2019-05-17T11:21:00.622Z,168.75
2019-05-17T11:22:00.615Z,174.38
2019-05-17T11:23:00.620Z,174.38
2019-05-17T11:24:00.610Z,174.38
2019-05-17T11:25:00.607Z,174.38
2019-05-17T11:26:00.605Z,168.75
2019-05-17T11:27:00.603Z,168.75
2019-05-17T11:28:00.596Z,168.75
2019-05-17T11:29:00.592Z,168.75
2019-05-17T11:30:00.586Z,163.13
2019-05-17T11:31:00.583Z,157.50
2019-05-17T11:32:00.583Z,157.50
2019-05-17T11:33:00.575Z,157.50
2019-05-17T11:34:00.572Z,163.13
2019-05-17T11:35:00.572Z,163.13
2019-05-17T11:36:00.578Z,157.50
2019-05-17T11:37:00.562Z,151.88
2019-05-17T11:38:00.558Z,151.88
2019-05-17T11:39:00.555Z,151.88
2019-05-17T11:40:00.552Z,146.25
2019-05-17T11:41:00.551Z,146.25
2019-05-17T11:42:00.543Z,151.88
2019-05-17T11:43:00.544Z,151.88
2019-05-17T11:44:00.585Z,146.25
2019-05-17T11:45:00.535Z,135.00
2019-05-17T11:46:00.532Z,135.00
2019-05-17T11:47:00.530Z,135.00
2019-05-17T11:48:00.527Z,129.38
2019-05-17T11:49:00.527Z,129.38
2019-05-17T11:50:00.521Z,129.38
2019-05-17T11:51:00.517Z,129.38
2019-05-17T11:52:00.514Z,135.00
2019-05-17T11:53:00.510Z,135.00
2019-05-17T11:54:00.503Z,129.38
2019-05-17T11:55:00.501Z,129.38
2019-05-17T11:56:00.501Z,129.38
2019-05-17T11:57:00.494Z,135.00
2019-05-17T11:58:00.491Z,135.00
2019-05-17T11:59:00.483Z,140.63
2019-05-17T12:00:00.484Z,140.63
2019-05-17T12:01:00.480Z,140.63
2019-05-17T12:02:00.475Z,140.63
2019-05-17T12:03:00.477Z,146.25
2019-05-17T12:04:00.500Z,140.63
2019-05-17T12:05:00.466Z,140.63
2019-05-17T12:06:00.461Z,140.63
2019-05-17T12:07:00.459Z,146.25
2019-05-17T12:08:00.452Z,146.25
2019-05-17T12:09:00.448Z,146.25
2019-05-17T12:10:00.443Z,146.25
2019-05-17T12:11:00.610Z,146.25
2019-05-17T12:12:00.436Z,146.25
2019-05-17T12:13:00.434Z,151.88
2019-05-17T12:14:00.429Z,151.88
2019-05-17T12:15:00.428Z,151.88
2019-05-17T12:16:00.426Z,151.88
2019-05-17T12:17:00.419Z,151.88
2019-05-17T12:18:00.416Z,151.88
2019-05-17T12:19:00.413Z,151.88
2019-05-17T12:20:00.407Z,157.50
2019-05-17T12:21:00.469Z,157.50
2019-05-17T12:22:00.403Z,157.50
2019-05-17T12:23:00.402Z,163.13
2019-05-17T12:24:00.398Z,163.13
2019-05-17T12:25:00.394Z,163.13
2019-05-17T12:26:00.386Z,157.50
2019-05-17T12:27:00.384Z,168.75
2019-05-17T12:28:00.380Z,168.75
2019-05-17T12:29:00.378Z,163.13
2019-05-17T12:30:00.377Z,163.13
2019-05-17T12:31:00.373Z,163.13
2019-05-17T12:32:00.368Z,168.75
2019-05-17T12:33:00.365Z,163.13
2019-05-17T12:34:00.361Z,163.13
2019-05-17T12:35:00.397Z,163.13
2019-05-17T12:36:00.356Z,168.75
2019-05-17T12:37:00.350Z,168.75
2019-05-17T12:38:00.349Z,157.50
2019-05-17T12:39:00.348Z,140.63
2019-05-17T12:40:00.342Z,146.25
2019-05-17T12:41:00.345Z,140.63
2019-05-17T12:42:00.445Z,151.88
2019-05-17T12:43:00.334Z,146.25
2019-05-17T12:44:00.333Z,140.63